Flight Track Log - Related Links

Times and Time Zones

All times are in EDT time to prevent confusion due to time zone crossing. See the AMF9315 flight status page for this flight to view local times or setup timezone preferences in your user account.

Time Position Orientation Groundspeed Altitude Reporting Facility
EDT Latitude Longitude Course Direction KTS MPH feet Rate Location/Type
Sat 07:29:41 AM 35.0311 -86.6444 12° North 257 296 7,000  Level Memphis Center
Sat 07:30:41 AM 35.0992 -86.6261 12° North 257 296 7,000  Level Memphis Center
Sat 07:31:41 AM 35.1672 -86.5978 19° North 257 296 7,000  Level Memphis Center
Sat 07:32:41 AM 35.2333 -86.5794 13° North 257 296 7,000  Level Memphis Center
Sat 07:33:41 AM 35.2994 -86.5511 19° North 250 288 7,000  Level Memphis Center
Sat 07:34:41 AM 35.3675 -86.5303 14° North 245 282 7,000  Level Memphis Center
Sat 07:35:42 AM 35.4397 -86.5039 17° North 250 288 7,000  Level Memphis Center
Sat 07:36:41 AM 35.5053 -86.4678 24° Northeast 245 282 7,000  Level Memphis Center
Sat 07:37:41 AM 35.5689 -86.4342 23° Northeast 250 288 7,000  Level Memphis Center
Sat 07:38:41 AM 35.6369 -86.4106 16° North 250 288 7,000 -500 Level Memphis Center
Sat 07:39:41 AM 35.7008 -86.3869 17° North 239 275 6,000 -1,250 Descending Memphis Center
Sat 07:40:41 AM 35.7669 -86.3658 15° North 239 275 4,500 -1,450 Descending Memphis Center
Sat 07:41:41 AM 35.8314 -86.3603 North 239 275 3,100 -1,150 Descending Memphis Center
Sat 07:42:41 AM 35.8847 -86.3936 14° North 217 250 2,200 -600 Descending Memphis Center
Sat 07:43:41 AM 35.9233 -86.4300 323° Northwest 189 217 1,900 -300 Descending Memphis Center
Sat 07:44:41 AM 35.9514 -86.4619 317° Northwest 154 177 1,600 -450 Descending Memphis Center
Sat 07:45:41 AM 35.9814 -86.4914 322° Northwest 136 157 1,000 -550 Descending Memphis Center
Sat 07:46:41 AM 36.0011 -86.5161 315° West 125 144 500 -250 Descending Memphis Center
Sat 07:47:41 AM 36.0075 -86.5208 329° Northwest 110 127 500  Level Memphis Center
Sat 07:48:41 AM 36.0183 -86.5358 312° West 63 72 500  Level Memphis Center
Sat 07:52:00 AM 36.0090 -86.5201 122° Southeast  Level Estimated
Sat 07:59:00 AM 36.0090 -86.5201 122° Southeast  Level Estimated
Sat 08:00:00 AM 36.0090 -86.5201 122° Southeast  Level Estimated
Sat 08:01:00 AM 36.0090 -86.5201 122° Southeast  Level Estimated
Sat 08:02:00 AM 36.0090 -86.5201 122° Southeast  Level Estimated
Sat 08:03:00 AM 36.0090 -86.5201 122° Southeast  Level Estimated
Sat 08:04:00 AM 36.0090 -86.5201 122° Southeast  Level Estimated
Sat 08:05:00 AM 36.0090 -86.5201 122° Southeast  Level Estimated
Sat 08:06:00 AM 36.0090 -86.5201 122° Southeast  Level Estimated

Login

Don't have an account? Register now (free) for customized features, flight alerts, and more!